sensor_id;sensor_type;location;lat;lon;timestamp;temperature;humidity
306;DHT22;137;48.578;9.180;2023-11-22T00:01:09;7.40;98.20
306;DHT22;137;48.578;9.180;2023-11-22T00:03:37;7.40;98.20
306;DHT22;137;48.578;9.180;2023-11-22T00:06:05;7.40;98.20
306;DHT22;137;48.578;9.180;2023-11-22T00:08:34;7.40;98.20
306;DHT22;137;48.578;9.180;2023-11-22T00:11:01;7.40;98.20
306;DHT22;137;48.578;9.180;2023-11-22T00:13:29;7.40;98.20
306;DHT22;137;48.578;9.180;2023-11-22T00:15:57;7.40;98.20
306;DHT22;137;48.578;9.180;2023-11-22T00:18:27;7.40;98.20
306;DHT22;137;48.578;9.180;2023-11-22T00:20:55;7.40;98.20
306;DHT22;137;48.578;9.180;2023-11-22T00:23:23;7.40;98.20
306;DHT22;137;48.578;9.180;2023-11-22T00:25:54;7.40;98.20
306;DHT22;137;48.578;9.180;2023-11-22T00:28:25;7.40;98.20
306;DHT22;137;48.578;9.180;2023-11-22T00:30:52;7.40;98.20
306;DHT22;137;48.578;9.180;2023-11-22T00:33:19;7.30;98.20
306;DHT22;137;48.578;9.180;2023-11-22T00:35:45;7.30;98.20
306;DHT22;137;48.578;9.180;2023-11-22T00:38:12;7.30;98.20
306;DHT22;137;48.578;9.180;2023-11-22T00:40:39;7.30;98.20
306;DHT22;137;48.578;9.180;2023-11-22T00:43:07;7.30;98.20
306;DHT22;137;48.578;9.180;2023-11-22T00:45:34;7.30;98.20
306;DHT22;137;48.578;9.180;2023-11-22T00:48:01;7.30;98.20
306;DHT22;137;48.578;9.180;2023-11-22T00:50:28;7.30;98.20
306;DHT22;137;48.578;9.180;2023-11-22T00:52:55;7.20;98.20
306;DHT22;137;48.578;9.180;2023-11-22T00:55:21;7.20;98.20
306;DHT22;137;48.578;9.180;2023-11-22T00:57:48;7.20;98.20
306;DHT22;137;48.578;9.180;2023-11-22T01:00:17;7.30;98.20
306;DHT22;137;48.578;9.180;2023-11-22T01:02:44;7.30;98.20
306;DHT22;137;48.578;9.180;2023-11-22T01:05:10;7.00;98.20
306;DHT22;137;48.578;9.180;2023-11-22T01:07:38;6.80;98.20
306;DHT22;137;48.578;9.180;2023-11-22T01:10:06;6.60;98.20
306;DHT22;137;48.578;9.180;2023-11-22T01:12:33;6.40;98.20
306;DHT22;137;48.578;9.180;2023-11-22T01:14:59;6.30;98.20
306;DHT22;137;48.578;9.180;2023-11-22T01:17:28;6.20;98.20
306;DHT22;137;48.578;9.180;2023-11-22T01:19:54;6.10;98.20
306;DHT22;137;48.578;9.180;2023-11-22T01:22:21;5.90;98.20
306;DHT22;137;48.578;9.180;2023-11-22T01:24:48;5.70;98.20
306;DHT22;137;48.578;9.180;2023-11-22T01:27:15;5.50;98.20
306;DHT22;137;48.578;9.180;2023-11-22T01:29:41;5.40;98.20
306;DHT22;137;48.578;9.180;2023-11-22T01:32:08;5.40;98.20
306;DHT22;137;48.578;9.180;2023-11-22T01:34:37;5.30;98.20
306;DHT22;137;48.578;9.180;2023-11-22T01:37:04;5.30;98.20
306;DHT22;137;48.578;9.180;2023-11-22T01:39:31;5.20;98.20
306;DHT22;137;48.578;9.180;2023-11-22T01:41:58;5.20;98.20
306;DHT22;137;48.578;9.180;2023-11-22T01:44:25;5.10;98.20
306;DHT22;137;48.578;9.180;2023-11-22T01:46:52;5.10;98.20
306;DHT22;137;48.578;9.180;2023-11-22T01:49:19;5.00;98.20
306;DHT22;137;48.578;9.180;2023-11-22T01:51:47;5.00;98.20
306;DHT22;137;48.578;9.180;2023-11-22T01:54:14;4.90;98.20
306;DHT22;137;48.578;9.180;2023-11-22T01:56:41;4.90;98.20
306;DHT22;137;48.578;9.180;2023-11-22T01:59:08;4.80;98.20
306;DHT22;137;48.578;9.180;2023-11-22T02:01:35;4.70;98.20
306;DHT22;137;48.578;9.180;2023-11-22T02:04:02;4.70;98.20
306;DHT22;137;48.578;9.180;2023-11-22T02:06:29;4.70;98.20
306;DHT22;137;48.578;9.180;2023-11-22T02:08:58;4.70;98.20
306;DHT22;137;48.578;9.180;2023-11-22T02:11:25;4.70;98.20
306;DHT22;137;48.578;9.180;2023-11-22T02:13:53;4.60;98.20
306;DHT22;137;48.578;9.180;2023-11-22T02:16:19;4.70;98.20
306;DHT22;137;48.578;9.180;2023-11-22T02:18:47;4.70;98.20
306;DHT22;137;48.578;9.180;2023-11-22T02:21:16;4.70;98.20
306;DHT22;137;48.578;9.180;2023-11-22T02:23:44;4.70;98.20
306;DHT22;137;48.578;9.180;2023-11-22T02:26:12;4.70;98.20
306;DHT22;137;48.578;9.180;2023-11-22T02:28:38;4.70;98.20
306;DHT22;137;48.578;9.180;2023-11-22T02:31:05;4.70;98.20
306;DHT22;137;48.578;9.180;2023-11-22T02:33:32;4.70;98.20
306;DHT22;137;48.578;9.180;2023-11-22T02:35:59;4.60;98.20
306;DHT22;137;48.578;9.180;2023-11-22T02:38:27;4.60;98.20
306;DHT22;137;48.578;9.180;2023-11-22T02:40:55;4.50;98.20
306;DHT22;137;48.578;9.180;2023-11-22T02:43:23;4.40;98.20
306;DHT22;137;48.578;9.180;2023-11-22T02:45:50;4.40;98.20
306;DHT22;137;48.578;9.180;2023-11-22T02:48:17;4.40;98.20
306;DHT22;137;48.578;9.180;2023-11-22T02:50:44;4.30;98.20
306;DHT22;137;48.578;9.180;2023-11-22T02:53:11;4.30;98.20
306;DHT22;137;48.578;9.180;2023-11-22T02:55:37;4.10;98.20
306;DHT22;137;48.578;9.180;2023-11-22T02:58:06;4.00;98.20
306;DHT22;137;48.578;9.180;2023-11-22T03:00:33;4.00;98.20
306;DHT22;137;48.578;9.180;2023-11-22T03:03:00;4.00;98.20
306;DHT22;137;48.578;9.180;2023-11-22T03:05:29;4.00;98.20
306;DHT22;137;48.578;9.180;2023-11-22T03:07:55;3.90;98.20
306;DHT22;137;48.578;9.180;2023-11-22T03:10:23;3.90;98.20
306;DHT22;137;48.578;9.180;2023-11-22T03:12:50;3.90;98.20
306;DHT22;137;48.578;9.180;2023-11-22T03:15:19;3.90;98.20
306;DHT22;137;48.578;9.180;2023-11-22T03:17:46;3.80;98.20
306;DHT22;137;48.578;9.180;2023-11-22T03:22:39;3.70;98.20
306;DHT22;137;48.578;9.180;2023-11-22T03:25:06;3.70;98.20
306;DHT22;137;48.578;9.180;2023-11-22T03:27:35;3.60;98.20
306;DHT22;137;48.578;9.180;2023-11-22T03:30:02;3.60;98.20
306;DHT22;137;48.578;9.180;2023-11-22T03:32:31;3.60;98.20
306;DHT22;137;48.578;9.180;2023-11-22T03:35:02;3.60;98.20
306;DHT22;137;48.578;9.180;2023-11-22T03:37:30;3.60;98.20
306;DHT22;137;48.578;9.180;2023-11-22T03:39:56;3.60;98.20
306;DHT22;137;48.578;9.180;2023-11-22T03:42:24;3.50;98.20
306;DHT22;137;48.578;9.180;2023-11-22T03:44:52;3.50;98.20
306;DHT22;137;48.578;9.180;2023-11-22T03:47:19;3.50;98.20
306;DHT22;137;48.578;9.180;2023-11-22T03:49:47;3.50;98.20
306;DHT22;137;48.578;9.180;2023-11-22T03:52:14;3.50;98.20
306;DHT22;137;48.578;9.180;2023-11-22T03:54:41;3.50;98.20
306;DHT22;137;48.578;9.180;2023-11-22T03:57:08;3.40;98.20
306;DHT22;137;48.578;9.180;2023-11-22T03:59:35;3.40;98.20
306;DHT22;137;48.578;9.180;2023-11-22T04:02:02;3.30;98.20
306;DHT22;137;48.578;9.180;2023-11-22T04:04:29;3.20;98.20
306;DHT22;137;48.578;9.180;2023-11-22T04:06:57;3.20;98.20
306;DHT22;137;48.578;9.180;2023-11-22T04:09:24;3.20;98.20
306;DHT22;137;48.578;9.180;2023-11-22T04:11:51;3.10;98.20
306;DHT22;137;48.578;9.180;2023-11-22T04:14:18;3.00;98.20
306;DHT22;137;48.578;9.180;2023-11-22T04:16:45;2.90;98.20
306;DHT22;137;48.578;9.180;2023-11-22T04:19:12;2.80;98.20
306;DHT22;137;48.578;9.180;2023-11-22T04:21:39;2.80;98.20
306;DHT22;137;48.578;9.180;2023-11-22T04:24:08;2.80;98.20
306;DHT22;137;48.578;9.180;2023-11-22T04:26:35;2.80;98.20
306;DHT22;137;48.578;9.180;2023-11-22T04:29:02;2.80;98.20
306;DHT22;137;48.578;9.180;2023-11-22T04:31:29;2.90;98.20
306;DHT22;137;48.578;9.180;2023-11-22T04:33:56;2.90;98.20
306;DHT22;137;48.578;9.180;2023-11-22T04:36:25;2.90;98.20
306;DHT22;137;48.578;9.180;2023-11-22T04:38:52;2.90;98.20
306;DHT22;137;48.578;9.180;2023-11-22T04:41:20;2.90;98.20
306;DHT22;137;48.578;9.180;2023-11-22T04:43:48;2.90;98.20
306;DHT22;137;48.578;9.180;2023-11-22T04:46:14;2.90;98.20
306;DHT22;137;48.578;9.180;2023-11-22T04:48:40;2.90;98.20
306;DHT22;137;48.578;9.180;2023-11-22T04:51:10;3.00;98.20
306;DHT22;137;48.578;9.180;2023-11-22T04:53:37;3.00;98.20
306;DHT22;137;48.578;9.180;2023-11-22T04:56:05;3.00;98.20
306;DHT22;137;48.578;9.180;2023-11-22T04:58:33;3.00;98.20
306;DHT22;137;48.578;9.180;2023-11-22T05:01:01;2.90;98.20
306;DHT22;137;48.578;9.180;2023-11-22T05:03:28;3.00;98.20
306;DHT22;137;48.578;9.180;2023-11-22T05:05:54;2.90;98.20
306;DHT22;137;48.578;9.180;2023-11-22T05:08:21;2.90;98.20
306;DHT22;137;48.578;9.180;2023-11-22T05:10:48;2.90;98.20
306;DHT22;137;48.578;9.180;2023-11-22T05:13:15;2.90;98.20
306;DHT22;137;48.578;9.180;2023-11-22T05:15:43;2.90;98.20
306;DHT22;137;48.578;9.180;2023-11-22T05:18:09;2.90;98.20
306;DHT22;137;48.578;9.180;2023-11-22T05:20:36;2.90;98.20
306;DHT22;137;48.578;9.180;2023-11-22T05:23:03;2.80;98.20
306;DHT22;137;48.578;9.180;2023-11-22T05:25:30;2.80;98.20
306;DHT22;137;48.578;9.180;2023-11-22T05:27:56;2.80;98.20
306;DHT22;137;48.578;9.180;2023-11-22T05:30:24;2.80;98.20
306;DHT22;137;48.578;9.180;2023-11-22T05:32:52;2.80;98.20
306;DHT22;137;48.578;9.180;2023-11-22T05:35:19;2.80;98.20
306;DHT22;137;48.578;9.180;2023-11-22T05:37:45;2.80;98.20
306;DHT22;137;48.578;9.180;2023-11-22T05:40:12;2.80;98.20
306;DHT22;137;48.578;9.180;2023-11-22T05:42:41;2.90;98.20
306;DHT22;137;48.578;9.180;2023-11-22T05:45:09;2.80;98.20
306;DHT22;137;48.578;9.180;2023-11-22T05:47:35;2.80;98.20
306;DHT22;137;48.578;9.180;2023-11-22T05:50:05;2.90;98.20
306;DHT22;137;48.578;9.180;2023-11-22T05:52:31;2.90;98.20
306;DHT22;137;48.578;9.180;2023-11-22T05:54:58;2.90;98.20
306;DHT22;137;48.578;9.180;2023-11-22T05:57:29;2.80;98.20
306;DHT22;137;48.578;9.180;2023-11-22T05:59:55;2.80;98.20
306;DHT22;137;48.578;9.180;2023-11-22T06:02:22;2.80;98.20
306;DHT22;137;48.578;9.180;2023-11-22T06:04:49;2.80;98.20
306;DHT22;137;48.578;9.180;2023-11-22T06:07:17;2.80;98.20
306;DHT22;137;48.578;9.180;2023-11-22T06:09:44;2.80;98.20
306;DHT22;137;48.578;9.180;2023-11-22T06:12:10;2.70;98.20
306;DHT22;137;48.578;9.180;2023-11-22T06:14:37;2.70;98.20
306;DHT22;137;48.578;9.180;2023-11-22T06:17:04;2.70;98.20
306;DHT22;137;48.578;9.180;2023-11-22T06:19:31;2.70;98.20
306;DHT22;137;48.578;9.180;2023-11-22T06:21:57;2.70;98.20
306;DHT22;137;48.578;9.180;2023-11-22T06:24:27;2.80;98.20
306;DHT22;137;48.578;9.180;2023-11-22T06:26:54;2.80;98.20
306;DHT22;137;48.578;9.180;2023-11-22T06:29:21;2.90;98.20
306;DHT22;137;48.578;9.180;2023-11-22T06:31:47;2.90;98.20
306;DHT22;137;48.578;9.180;2023-11-22T06:34:14;2.80;98.20
306;DHT22;137;48.578;9.180;2023-11-22T06:36:41;2.80;98.20
306;DHT22;137;48.578;9.180;2023-11-22T06:39:08;2.80;98.20
306;DHT22;137;48.578;9.180;2023-11-22T06:41:40;2.80;98.20
306;DHT22;137;48.578;9.180;2023-11-22T06:44:07;2.80;98.20
306;DHT22;137;48.578;9.180;2023-11-22T06:46:34;2.80;98.20
306;DHT22;137;48.578;9.180;2023-11-22T06:49:01;2.80;98.20
306;DHT22;137;48.578;9.180;2023-11-22T06:51:28;2.90;98.20
306;DHT22;137;48.578;9.180;2023-11-22T06:53:55;2.90;98.20
306;DHT22;137;48.578;9.180;2023-11-22T06:56:22;2.90;98.20
306;DHT22;137;48.578;9.180;2023-11-22T06:58:50;2.90;98.20
306;DHT22;137;48.578;9.180;2023-11-22T07:01:17;2.90;98.20
306;DHT22;137;48.578;9.180;2023-11-22T07:03:43;2.90;98.20
306;DHT22;137;48.578;9.180;2023-11-22T07:06:10;3.00;98.20
306;DHT22;137;48.578;9.180;2023-11-22T07:08:37;2.90;98.20
306;DHT22;137;48.578;9.180;2023-11-22T07:11:04;2.90;98.20
306;DHT22;137;48.578;9.180;2023-11-22T07:13:35;2.90;98.20
306;DHT22;137;48.578;9.180;2023-11-22T07:16:05;2.90;98.20
306;DHT22;137;48.578;9.180;2023-11-22T07:18:32;2.90;98.20
306;DHT22;137;48.578;9.180;2023-11-22T07:20:59;2.90;98.20
306;DHT22;137;48.578;9.180;2023-11-22T07:23:26;2.90;98.20
306;DHT22;137;48.578;9.180;2023-11-22T07:25:54;3.00;98.20
306;DHT22;137;48.578;9.180;2023-11-22T07:28:21;2.90;98.20
306;DHT22;137;48.578;9.180;2023-11-22T07:30:48;2.90;98.20
306;DHT22;137;48.578;9.180;2023-11-22T07:33:18;3.00;98.20
306;DHT22;137;48.578;9.180;2023-11-22T07:35:46;3.00;98.20
306;DHT22;137;48.578;9.180;2023-11-22T07:38:12;3.00;98.20
306;DHT22;137;48.578;9.180;2023-11-22T07:40:39;3.10;98.20
306;DHT22;137;48.578;9.180;2023-11-22T07:43:07;3.10;98.20
306;DHT22;137;48.578;9.180;2023-11-22T07:45:34;3.00;98.20
306;DHT22;137;48.578;9.180;2023-11-22T07:48:01;3.00;98.20
306;DHT22;137;48.578;9.180;2023-11-22T07:50:30;3.10;98.20
306;DHT22;137;48.578;9.180;2023-11-22T07:52:56;3.10;98.20
306;DHT22;137;48.578;9.180;2023-11-22T07:55:23;3.10;98.20
306;DHT22;137;48.578;9.180;2023-11-22T07:57:50;3.10;98.20
306;DHT22;137;48.578;9.180;2023-11-22T08:00:19;3.10;98.20
306;DHT22;137;48.578;9.180;2023-11-22T08:02:45;3.20;98.20
306;DHT22;137;48.578;9.180;2023-11-22T08:05:12;3.10;98.20
306;DHT22;137;48.578;9.180;2023-11-22T08:07:42;3.20;98.20
306;DHT22;137;48.578;9.180;2023-11-22T08:10:11;3.20;98.20
306;DHT22;137;48.578;9.180;2023-11-22T08:12:48;3.20;98.20
306;DHT22;137;48.578;9.180;2023-11-22T08:15:16;3.20;98.20
306;DHT22;137;48.578;9.180;2023-11-22T08:17:43;3.20;98.20
306;DHT22;137;48.578;9.180;2023-11-22T08:22:35;3.20;98.20
306;DHT22;137;48.578;9.180;2023-11-22T08:25:04;3.10;98.20
306;DHT22;137;48.578;9.180;2023-11-22T08:27:31;3.10;98.20
306;DHT22;137;48.578;9.180;2023-11-22T08:29:58;3.00;98.20
306;DHT22;137;48.578;9.180;2023-11-22T08:32:30;2.90;98.20
306;DHT22;137;48.578;9.180;2023-11-22T08:34:57;2.80;98.20
306;DHT22;137;48.578;9.180;2023-11-22T08:37:24;2.80;98.20
306;DHT22;137;48.578;9.180;2023-11-22T08:39:50;2.70;98.20
306;DHT22;137;48.578;9.180;2023-11-22T08:42:19;2.70;98.20
306;DHT22;137;48.578;9.180;2023-11-22T08:44:45;2.70;98.20
306;DHT22;137;48.578;9.180;2023-11-22T08:47:12;2.70;98.20
306;DHT22;137;48.578;9.180;2023-11-22T08:49:39;2.70;98.20
306;DHT22;137;48.578;9.180;2023-11-22T08:52:07;2.70;98.20
306;DHT22;137;48.578;9.180;2023-11-22T08:54:34;2.60;98.20
306;DHT22;137;48.578;9.180;2023-11-22T08:57:00;2.70;98.20
306;DHT22;137;48.578;9.180;2023-11-22T08:59:28;2.70;98.20
306;DHT22;137;48.578;9.180;2023-11-22T09:01:55;2.70;98.20
306;DHT22;137;48.578;9.180;2023-11-22T09:04:22;2.70;98.20
306;DHT22;137;48.578;9.180;2023-11-22T09:06:49;2.70;98.20
306;DHT22;137;48.578;9.180;2023-11-22T09:09:16;2.70;98.20
306;DHT22;137;48.578;9.180;2023-11-22T09:11:43;2.70;98.20
306;DHT22;137;48.578;9.180;2023-11-22T09:14:10;2.70;98.20
306;DHT22;137;48.578;9.180;2023-11-22T09:16:38;2.70;98.20
306;DHT22;137;48.578;9.180;2023-11-22T09:19:05;2.70;98.20
306;DHT22;137;48.578;9.180;2023-11-22T09:21:33;2.70;98.20
306;DHT22;137;48.578;9.180;2023-11-22T09:24:00;2.70;98.20
306;DHT22;137;48.578;9.180;2023-11-22T09:26:28;2.70;98.20
306;DHT22;137;48.578;9.180;2023-11-22T09:28:55;2.70;98.20
306;DHT22;137;48.578;9.180;2023-11-22T09:31:21;2.70;98.20
306;DHT22;137;48.578;9.180;2023-11-22T09:33:53;2.70;98.20
306;DHT22;137;48.578;9.180;2023-11-22T09:36:34;2.70;98.20
306;DHT22;137;48.578;9.180;2023-11-22T09:39:02;2.70;98.20
306;DHT22;137;48.578;9.180;2023-11-22T09:41:33;2.70;98.20
306;DHT22;137;48.578;9.180;2023-11-22T09:44:04;2.80;98.20
306;DHT22;137;48.578;9.180;2023-11-22T09:46:36;2.80;98.20
306;DHT22;137;48.578;9.180;2023-11-22T09:49:15;2.80;98.20
306;DHT22;137;48.578;9.180;2023-11-22T09:51:48;2.80;98.20
306;DHT22;137;48.578;9.180;2023-11-22T09:54:18;2.80;98.20
306;DHT22;137;48.578;9.180;2023-11-22T09:56:56;2.80;98.20
306;DHT22;137;48.578;9.180;2023-11-22T09:59:25;2.70;98.20
306;DHT22;137;48.578;9.180;2023-11-22T10:01:53;2.80;98.20
306;DHT22;137;48.578;9.180;2023-11-22T10:04:28;2.90;98.20
306;DHT22;137;48.578;9.180;2023-11-22T10:06:57;2.90;98.20
306;DHT22;137;48.578;9.180;2023-11-22T10:09:25;2.90;98.20
306;DHT22;137;48.578;9.180;2023-11-22T10:11:52;3.00;98.20
306;DHT22;137;48.578;9.180;2023-11-22T10:14:25;3.10;98.20
306;DHT22;137;48.578;9.180;2023-11-22T10:16:59;3.10;98.20
306;DHT22;137;48.578;9.180;2023-11-22T10:19:28;3.10;98.20
306;DHT22;137;48.578;9.180;2023-11-22T10:22:05;3.10;98.20
306;DHT22;137;48.578;9.180;2023-11-22T10:24:32;3.10;98.20
306;DHT22;137;48.578;9.180;2023-11-22T10:27:00;3.20;98.20
306;DHT22;137;48.578;9.180;2023-11-22T10:29:27;3.20;98.20
306;DHT22;137;48.578;9.180;2023-11-22T10:31:54;3.10;98.20
306;DHT22;137;48.578;9.180;2023-11-22T10:34:23;3.10;98.20
306;DHT22;137;48.578;9.180;2023-11-22T10:36:52;3.10;98.20
306;DHT22;137;48.578;9.180;2023-11-22T10:39:19;3.20;98.20
306;DHT22;137;48.578;9.180;2023-11-22T10:41:47;3.10;98.20
306;DHT22;137;48.578;9.180;2023-11-22T10:44:16;3.10;98.20
306;DHT22;137;48.578;9.180;2023-11-22T10:46:42;3.10;98.20
306;DHT22;137;48.578;9.180;2023-11-22T10:49:09;3.10;98.20
306;DHT22;137;48.578;9.180;2023-11-22T10:51:38;3.10;98.20
306;DHT22;137;48.578;9.180;2023-11-22T10:54:07;3.20;98.20
306;DHT22;137;48.578;9.180;2023-11-22T10:56:38;3.20;98.20
306;DHT22;137;48.578;9.180;2023-11-22T10:59:10;3.20;98.20
306;DHT22;137;48.578;9.180;2023-11-22T11:01:40;3.20;98.20
306;DHT22;137;48.578;9.180;2023-11-22T11:04:18;3.10;98.20
306;DHT22;137;48.578;9.180;2023-11-22T11:06:51;3.10;98.20
306;DHT22;137;48.578;9.180;2023-11-22T11:09:19;3.10;98.20
306;DHT22;137;48.578;9.180;2023-11-22T11:11:50;3.20;98.20
306;DHT22;137;48.578;9.180;2023-11-22T11:14:17;3.20;98.20
306;DHT22;137;48.578;9.180;2023-11-22T11:16:45;3.30;98.20
306;DHT22;137;48.578;9.180;2023-11-22T11:19:15;3.30;98.20
306;DHT22;137;48.578;9.180;2023-11-22T11:21:43;3.30;98.20
306;DHT22;137;48.578;9.180;2023-11-22T11:24:11;3.20;98.20
306;DHT22;137;48.578;9.180;2023-11-22T11:26:39;3.30;98.20
306;DHT22;137;48.578;9.180;2023-11-22T11:29:06;3.20;98.20
306;DHT22;137;48.578;9.180;2023-11-22T11:31:38;3.20;98.20
306;DHT22;137;48.578;9.180;2023-11-22T11:34:07;3.20;98.20
306;DHT22;137;48.578;9.180;2023-11-22T11:36:37;3.20;98.20
306;DHT22;137;48.578;9.180;2023-11-22T11:39:06;3.20;98.20
306;DHT22;137;48.578;9.180;2023-11-22T11:41:35;3.20;98.20
306;DHT22;137;48.578;9.180;2023-11-22T11:44:07;3.20;98.20
306;DHT22;137;48.578;9.180;2023-11-22T11:46:34;3.10;98.20
306;DHT22;137;48.578;9.180;2023-11-22T11:49:06;3.10;98.20
306;DHT22;137;48.578;9.180;2023-11-22T11:51:33;3.10;98.20
306;DHT22;137;48.578;9.180;2023-11-22T11:54:00;3.10;98.20
306;DHT22;137;48.578;9.180;2023-11-22T11:56:27;3.10;98.20
306;DHT22;137;48.578;9.180;2023-11-22T11:58:56;3.00;98.20
306;DHT22;137;48.578;9.180;2023-11-22T12:01:28;3.00;98.20
306;DHT22;137;48.578;9.180;2023-11-22T12:03:57;3.00;98.20
306;DHT22;137;48.578;9.180;2023-11-22T12:06:28;3.00;98.20
306;DHT22;137;48.578;9.180;2023-11-22T12:08:56;3.00;98.20
306;DHT22;137;48.578;9.180;2023-11-22T12:11:25;3.00;98.20
306;DHT22;137;48.578;9.180;2023-11-22T12:13:51;3.10;98.20
306;DHT22;137;48.578;9.180;2023-11-22T12:16:18;3.10;98.20
306;DHT22;137;48.578;9.180;2023-11-22T12:18:48;3.00;98.20
306;DHT22;137;48.578;9.180;2023-11-22T12:21:16;3.00;98.20
306;DHT22;137;48.578;9.180;2023-11-22T12:23:44;3.00;98.20
306;DHT22;137;48.578;9.180;2023-11-22T12:26:13;3.00;98.20
306;DHT22;137;48.578;9.180;2023-11-22T12:28:40;3.00;98.20
306;DHT22;137;48.578;9.180;2023-11-22T12:31:07;3.00;98.20
306;DHT22;137;48.578;9.180;2023-11-22T12:33:35;3.00;98.20
306;DHT22;137;48.578;9.180;2023-11-22T12:36:04;3.00;98.20
306;DHT22;137;48.578;9.180;2023-11-22T12:38:31;3.00;98.20
306;DHT22;137;48.578;9.180;2023-11-22T12:40:59;3.10;98.20
306;DHT22;137;48.578;9.180;2023-11-22T12:43:28;3.00;98.20
306;DHT22;137;48.578;9.180;2023-11-22T12:45:59;3.10;98.20
306;DHT22;137;48.578;9.180;2023-11-22T12:48:26;3.10;98.20
306;DHT22;137;48.578;9.180;2023-11-22T12:50:56;3.10;98.20
306;DHT22;137;48.578;9.180;2023-11-22T12:53:24;3.10;98.20
306;DHT22;137;48.578;9.180;2023-11-22T12:55:54;3.20;98.20
306;DHT22;137;48.578;9.180;2023-11-22T12:58:22;3.20;98.20
306;DHT22;137;48.578;9.180;2023-11-22T13:00:50;3.20;98.20
306;DHT22;137;48.578;9.180;2023-11-22T13:03:23;3.20;98.20
306;DHT22;137;48.578;9.180;2023-11-22T13:05:50;3.10;98.20
306;DHT22;137;48.578;9.180;2023-11-22T13:08:18;3.10;98.20
306;DHT22;137;48.578;9.180;2023-11-22T13:10:49;3.00;98.20
306;DHT22;137;48.578;9.180;2023-11-22T13:13:19;3.10;98.20
306;DHT22;137;48.578;9.180;2023-11-22T13:15:46;3.10;98.20
306;DHT22;137;48.578;9.180;2023-11-22T13:18:13;3.10;98.20
306;DHT22;137;48.578;9.180;2023-11-22T13:20:40;3.10;98.20
306;DHT22;137;48.578;9.180;2023-11-22T13:23:08;3.20;98.20
306;DHT22;137;48.578;9.180;2023-11-22T13:25:35;3.10;98.20
306;DHT22;137;48.578;9.180;2023-11-22T13:28:03;3.00;98.20
306;DHT22;137;48.578;9.180;2023-11-22T13:30:31;3.00;98.20
306;DHT22;137;48.578;9.180;2023-11-22T13:32:58;3.10;98.20
306;DHT22;137;48.578;9.180;2023-11-22T13:35:25;3.10;98.20
306;DHT22;137;48.578;9.180;2023-11-22T13:37:56;3.20;98.20
306;DHT22;137;48.578;9.180;2023-11-22T13:40:23;3.20;98.20
306;DHT22;137;48.578;9.180;2023-11-22T13:42:53;3.20;98.20
306;DHT22;137;48.578;9.180;2023-11-22T13:45:21;3.20;98.20
306;DHT22;137;48.578;9.180;2023-11-22T13:47:49;3.10;98.20
306;DHT22;137;48.578;9.180;2023-11-22T13:50:18;3.10;98.20
306;DHT22;137;48.578;9.180;2023-11-22T13:52:47;3.10;98.20
306;DHT22;137;48.578;9.180;2023-11-22T13:55:14;3.10;98.20
306;DHT22;137;48.578;9.180;2023-11-22T13:57:43;3.00;98.20
306;DHT22;137;48.578;9.180;2023-11-22T14:00:10;3.00;98.20
306;DHT22;137;48.578;9.180;2023-11-22T14:02:45;3.00;98.20
306;DHT22;137;48.578;9.180;2023-11-22T14:05:12;3.10;98.20
306;DHT22;137;48.578;9.180;2023-11-22T14:07:41;3.10;98.20
306;DHT22;137;48.578;9.180;2023-11-22T14:10:08;3.00;98.20
306;DHT22;137;48.578;9.180;2023-11-22T14:12:36;3.00;98.20
306;DHT22;137;48.578;9.180;2023-11-22T14:15:04;3.00;98.20
306;DHT22;137;48.578;9.180;2023-11-22T14:17:32;3.00;98.20
306;DHT22;137;48.578;9.180;2023-11-22T14:20:00;3.00;98.20
306;DHT22;137;48.578;9.180;2023-11-22T14:22:26;3.00;98.20
306;DHT22;137;48.578;9.180;2023-11-22T14:24:53;3.00;98.20
306;DHT22;137;48.578;9.180;2023-11-22T14:27:21;3.00;98.20
306;DHT22;137;48.578;9.180;2023-11-22T14:29:48;3.00;98.20
306;DHT22;137;48.578;9.180;2023-11-22T14:32:16;3.00;98.20
306;DHT22;137;48.578;9.180;2023-11-22T14:34:43;2.90;98.20
306;DHT22;137;48.578;9.180;2023-11-22T14:37:11;2.90;98.20
306;DHT22;137;48.578;9.180;2023-11-22T14:39:38;2.90;98.20
306;DHT22;137;48.578;9.180;2023-11-22T14:42:05;2.90;98.20
306;DHT22;137;48.578;9.180;2023-11-22T14:44:33;2.80;98.20
306;DHT22;137;48.578;9.180;2023-11-22T14:47:01;2.80;98.20
306;DHT22;137;48.578;9.180;2023-11-22T14:49:31;2.80;98.20
306;DHT22;137;48.578;9.180;2023-11-22T14:51:58;2.80;98.20
306;DHT22;137;48.578;9.180;2023-11-22T14:54:26;2.80;98.20
306;DHT22;137;48.578;9.180;2023-11-22T14:56:53;2.80;98.20
306;DHT22;137;48.578;9.180;2023-11-22T14:59:21;2.80;98.20
306;DHT22;137;48.578;9.180;2023-11-22T15:01:48;2.90;98.20
306;DHT22;137;48.578;9.180;2023-11-22T15:04:14;3.00;98.20
306;DHT22;137;48.578;9.180;2023-11-22T15:06:41;3.10;98.20
306;DHT22;137;48.578;9.180;2023-11-22T15:09:09;3.10;98.20
306;DHT22;137;48.578;9.180;2023-11-22T15:11:41;3.20;98.20
306;DHT22;137;48.578;9.180;2023-11-22T15:14:08;3.10;98.20
306;DHT22;137;48.578;9.180;2023-11-22T15:16:35;3.10;98.20
306;DHT22;137;48.578;9.180;2023-11-22T15:19:03;2.90;98.20
306;DHT22;137;48.578;9.180;2023-11-22T15:21:32;2.90;98.20
306;DHT22;137;48.578;9.180;2023-11-22T15:23:59;2.90;98.20
306;DHT22;137;48.578;9.180;2023-11-22T15:26:26;3.00;98.20
306;DHT22;137;48.578;9.180;2023-11-22T15:28:54;3.00;98.20
306;DHT22;137;48.578;9.180;2023-11-22T15:31:21;3.00;98.20
306;DHT22;137;48.578;9.180;2023-11-22T15:33:49;3.00;98.20
306;DHT22;137;48.578;9.180;2023-11-22T15:36:16;3.00;98.20
306;DHT22;137;48.578;9.180;2023-11-22T15:38:43;3.00;98.20
306;DHT22;137;48.578;9.180;2023-11-22T15:41:10;3.10;98.20
306;DHT22;137;48.578;9.180;2023-11-22T15:43:37;3.00;98.20
306;DHT22;137;48.578;9.180;2023-11-22T15:46:05;3.00;98.20
306;DHT22;137;48.578;9.180;2023-11-22T15:48:32;2.90;98.20
306;DHT22;137;48.578;9.180;2023-11-22T15:51:01;2.90;98.20
306;DHT22;137;48.578;9.180;2023-11-22T15:53:27;2.90;98.20
306;DHT22;137;48.578;9.180;2023-11-22T15:55:54;3.00;98.20
306;DHT22;137;48.578;9.180;2023-11-22T15:58:21;3.00;98.20
306;DHT22;137;48.578;9.180;2023-11-22T16:00:48;3.00;98.20
306;DHT22;137;48.578;9.180;2023-11-22T16:03:17;3.00;98.20
306;DHT22;137;48.578;9.180;2023-11-22T16:05:44;2.90;98.20
306;DHT22;137;48.578;9.180;2023-11-22T16:08:14;2.80;98.20
306;DHT22;137;48.578;9.180;2023-11-22T16:10:40;2.80;98.20
306;DHT22;137;48.578;9.180;2023-11-22T16:13:07;2.80;98.20
306;DHT22;137;48.578;9.180;2023-11-22T16:15:34;2.80;98.20
306;DHT22;137;48.578;9.180;2023-11-22T16:18:02;2.80;98.20
306;DHT22;137;48.578;9.180;2023-11-22T16:20:30;2.80;98.20
306;DHT22;137;48.578;9.180;2023-11-22T16:22:57;2.80;98.20
306;DHT22;137;48.578;9.180;2023-11-22T16:25:23;2.80;98.20
306;DHT22;137;48.578;9.180;2023-11-22T16:27:54;2.90;98.20
306;DHT22;137;48.578;9.180;2023-11-22T16:30:21;2.90;98.20
306;DHT22;137;48.578;9.180;2023-11-22T16:32:48;2.90;98.20
306;DHT22;137;48.578;9.180;2023-11-22T16:35:15;2.90;98.20
306;DHT22;137;48.578;9.180;2023-11-22T16:37:46;2.90;98.20
306;DHT22;137;48.578;9.180;2023-11-22T16:40:15;2.90;98.20
306;DHT22;137;48.578;9.180;2023-11-22T16:42:42;2.90;98.20
306;DHT22;137;48.578;9.180;2023-11-22T16:45:09;3.00;98.20
306;DHT22;137;48.578;9.180;2023-11-22T16:47:36;2.90;98.20
306;DHT22;137;48.578;9.180;2023-11-22T16:50:03;2.90;98.20
306;DHT22;137;48.578;9.180;2023-11-22T16:52:31;2.80;98.20
306;DHT22;137;48.578;9.180;2023-11-22T16:54:59;2.80;98.20
306;DHT22;137;48.578;9.180;2023-11-22T16:57:26;2.80;98.20
306;DHT22;137;48.578;9.180;2023-11-22T16:59:53;2.80;98.20